M I D A S
Marine Information and Data Acquisition System
Tripno 224 of the Zeeleeuw from 2002-03-01 07:40:00 to 2002-03-01 16:05:00
Back to CruiseResearch ActivitiesStationsMapUnderway DataData graphs

EquipmentUnitsComment
TimeDGPSUTC
LatitudeDGPSDM.mWGS84
LongitudeDGPSDM.mWGS84
HeadingGyrodeg 
SOGDGPSknotsSpeed over ground
COGDGPSdegCourse over ground
DepthEcho soundermeters200 kHz
Missing or incorrect values are displayed as -999
Navigation data collected by the RV Zeeleeuw from 2002-03-01 07:40:00 to 2002-03-01 16:05:00
                                                                                    Next 1000 lines
Time Latitude Longitude Heading SOG COG Depth
2002-03-01 07:49:05 51°14.297 2°55.205 317.3 9.2 312.6 8.8
2002-03-01 07:49:10 51°14.306 2°55.19 317.5 9.3 312.4 8.5
2002-03-01 07:49:14 51°14.313 2°55.177 317.2 9.3 312.3 8.4
2002-03-01 07:49:20 51°14.323 2°55.159 316.3 9.3 311.4 8.5
2002-03-01 07:49:25 51°14.331 2°55.143 315.7 9.4 310.3 8.4
2002-03-01 07:49:30 51°14.34 2°55.127 315 9.4 309.7 8
2002-03-01 07:49:35 51°14.348 2°55.11 314.7 9.4 309.2 8
2002-03-01 07:49:40 51°14.356 2°55.094 314.5 9.4 309 8.2
2002-03-01 07:49:45 51°14.364 2°55.078 314.8 9.4 309.1 8.3
2002-03-01 07:49:50 51°14.372 2°55.062 314.5 9.4 309.2 8.4
2002-03-01 07:49:55 51°14.38 2°55.046 314.5 9.5 309 8.4
2002-03-01 07:50:00 51°14.388 2°55.029 314 9.5 308.5 8.3
2002-03-01 07:50:05 51°14.396 2°55.011 312.8 9.6 307.9 8.4
2002-03-01 07:50:10 51°14.404 2°54.994 312.3 9.7 306.7 8.3
2002-03-01 07:50:15 51°14.412 2°54.977 312.2 9.8 306.2 7.9
2002-03-01 07:50:20 51°14.42 2°54.958 311.7 9.9 305.6 -999
2002-03-01 07:50:25 51°14.428 2°54.939 311 10.1 304.9 8.2
2002-03-01 07:50:30 51°14.436 2°54.919 310.3 10.5 303.8 -999
2002-03-01 07:50:35 51°14.445 2°54.899 309.3 10.8 303 8.3
2002-03-01 07:50:39 51°14.451 2°54.881 308.3 11.2 301.7 7.6
2002-03-01 07:50:45 51°14.461 2°54.855 308 11.5 300.7 8
2002-03-01 07:50:50 51°14.469 2°54.832 307.2 11.7 300.2 7.9
2002-03-01 07:50:54 51°14.475 2°54.814 307 11.9 300 8
2002-03-01 07:50:59 51°14.485 2°54.792 309.3 12.1 301.2 8.2
2002-03-01 07:51:05 51°14.497 2°54.765 312.7 12.2 303 8.2
2002-03-01 07:51:10 51°14.508 2°54.743 314.7 12.5 306.7 8.1
2002-03-01 07:51:15 51°14.519 2°54.721 316.3 12.6 307.8 8.1
2002-03-01 07:51:20 51°14.531 2°54.7 319.8 12.8 311.3 8
2002-03-01 07:51:25 51°14.544 2°54.681 323.8 12.9 313.9 8
2002-03-01 07:51:30 51°14.558 2°54.663 327.8 12.9 318.7 8
2002-03-01 07:51:35 51°14.572 2°54.646 330.7 12.9 321.1 8
2002-03-01 07:51:39 51°14.584 2°54.634 335.2 12.9 325.2 7.8
2002-03-01 07:51:45 51°14.603 2°54.617 339.2 12.9 329.4 7.8
2002-03-01 07:51:50 51°14.619 2°54.603 340.8 12.9 331.1 7.5
2002-03-01 07:51:55 51°14.635 2°54.59 341.2 12.9 331.9 7.7
2002-03-01 07:52:00 51°14.651 2°54.577 342.8 12.9 332.8 7.7
2002-03-01 07:52:04 51°14.664 2°54.568 344.7 12.9 334.4 7.8
2002-03-01 07:52:10 51°14.684 2°54.555 345.3 12.9 335.9 7.8
2002-03-01 07:52:15 51°14.7 2°54.545 348.5 12.8 337.8 7.8
2002-03-01 07:52:20 51°14.717 2°54.538 351.8 12.8 341.6 7.8
2002-03-01 07:52:25 51°14.735 2°54.53 353.8 12.8 343.8 7.7
2002-03-01 07:52:29 51°14.748 2°54.526 356.3 12.8 346.5 7.7
2002-03-01 07:52:34 51°14.766 2°54.521 358.3 12.8 348.6 7.7
2002-03-01 07:52:40 51°14.787 2°54.516 0.3 12.7 350.7 7.8
2002-03-01 07:52:45 51°14.804 2°54.514 3 12.6 352.5 7.7
2002-03-01 07:52:50 51°14.821 2°54.511 3.7 12.6 354.2 7.6
2002-03-01 07:52:55 51°14.839 2°54.51 4.5 12.6 355.3 7.5
2002-03-01 07:53:00 51°14.856 2°54.509 6.5 12.5 357.5 7.5
2002-03-01 07:53:05 51°14.873 2°54.51 9 12.5 0.5 7.4
2002-03-01 07:53:10 51°14.891 2°54.512 11 12.4 2 7.3
2002-03-01 07:53:15 51°14.907 2°54.513 11.8 12.4 3.1 7.1
2002-03-01 07:53:20 51°14.924 2°54.516 12.7 12.3 4.2 7.1
2002-03-01 07:53:24 51°14.938 2°54.518 13.7 12.2 4.7 7
2002-03-01 07:53:30 51°14.958 2°54.52 13.3 12 5 6.8
2002-03-01 07:53:35 51°14.974 2°54.522 12.2 11.9 4.6 6.8
2002-03-01 07:53:40 51°14.991 2°54.524 11.7 11.9 3.5 6.9
2002-03-01 07:53:45 51°15.007 2°54.526 13.7 11.9 4.5 6.4
2002-03-01 07:53:50 51°15.023 2°54.53 14.2 11.7 5.8 6.4
2002-03-01 07:53:55 51°15.038 2°54.533 15.3 11.6 6.8 6.2
2002-03-01 07:54:00 51°15.054 2°54.536 14.8 11.4 7.2 6.3
2002-03-01 07:54:05 51°15.07 2°54.54 15.5 11.4 8 6.3
2002-03-01 07:54:10 51°15.085 2°54.545 17.3 11.4 9.4 6.3
2002-03-01 07:54:15 51°15.101 2°54.549 18.5 11.4 10.4 6.3
2002-03-01 07:54:20 51°15.116 2°54.554 19.5 11.3 11.8 6.3
2002-03-01 07:54:24 51°15.129 2°54.558 19.7 11.3 12 6.3
2002-03-01 07:54:30 51°15.147 2°54.564 19.7 11.3 11.8 6.4
2002-03-01 07:54:35 51°15.163 2°54.569 19.3 11.3 11.4 6.4
2002-03-01 07:54:40 51°15.178 2°54.573 18.5 11.4 10.2 6.5
2002-03-01 07:54:45 51°15.194 2°54.576 17 11.4 9.2 6.5
2002-03-01 07:54:50 51°15.21 2°54.577 13.2 11.4 5.6 6.6
2002-03-01 07:54:55 51°15.226 2°54.577 9.3 11.5 3.8 6.7
2002-03-01 07:55:00 51°15.242 2°54.575 6.5 11.7 358.4 6.5
2002-03-01 07:55:05 51°15.258 2°54.572 2.8 11.8 354.3 6.7
2002-03-01 07:55:10 51°15.274 2°54.566 359.8 11.8 351.2 6.7
2002-03-01 07:55:15 51°15.29 2°54.559 355.2 11.8 348 6.8
2002-03-01 07:55:20 51°15.305 2°54.551 351.3 11.9 343.2 6.8
2002-03-01 07:55:24 51°15.318 2°54.543 348 12 340.7 7
2002-03-01 07:55:30 51°15.336 2°54.529 345.2 12.1 337.3 7.1
2002-03-01 07:55:35 51°15.352 2°54.517 343.7 12.1 335.6 7.1
2002-03-01 07:55:40 51°15.367 2°54.507 343.8 12.2 335.2 7.2
2002-03-01 07:55:45 51°15.383 2°54.497 345.7 12.3 336.4 7.1
2002-03-01 07:55:50 51°15.399 2°54.488 348.2 12.3 339 7.1
2002-03-01 07:55:55 51°15.416 2°54.48 350.3 12.3 341.3 7.2
2002-03-01 07:56:00 51°15.432 2°54.472 352 12.4 343.1 7.2
2002-03-01 07:56:05 51°15.449 2°54.467 354.8 12.4 345.5 7.3
2002-03-01 07:56:10 51°15.466 2°54.462 357.5 12.4 347.8 7.3
2002-03-01 07:56:15 51°15.483 2°54.458 359.8 12.4 349.7 7.4
2002-03-01 07:56:20 51°15.5 2°54.454 1.2 12.4 351.5 7.5
2002-03-01 07:56:24 51°15.513 2°54.45 359.8 12.4 351.4 7.5
2002-03-01 07:56:30 51°15.534 2°54.445 359.5 12.4 350.5 7.6
2002-03-01 07:56:35 51°15.551 2°54.441 0.2 12.5 350.8 7.7
2002-03-01 07:56:40 51°15.568 2°54.437 1.5 12.5 352 7.7
2002-03-01 07:56:45 51°15.585 2°54.435 2.8 12.6 353.2 7.7
2002-03-01 07:56:50 51°15.603 2°54.433 4.2 12.7 354.8 7.7
2002-03-01 07:56:55 51°15.62 2°54.432 6.3 12.7 355.6 7.8
2002-03-01 07:57:00 51°15.638 2°54.432 8 12.6 358.4 7.8
2002-03-01 07:57:05 51°15.655 2°54.433 9.8 12.6 0.6 7.8
2002-03-01 07:57:10 51°15.673 2°54.433 10.2 12.6 0.8 7.9
2002-03-01 07:57:15 51°15.69 2°54.433 9.3 12.5 1.2 7.9
2002-03-01 07:57:20 51°15.707 2°54.434 9.5 12.6 1.1 8
2002-03-01 07:57:24 51°15.721 2°54.435 11.5 12.6 1.7 8.1
2002-03-01 07:57:30 51°15.743 2°54.437 11.7 12.7 2.7 8.1
2002-03-01 07:57:35 51°15.76 2°54.437 10.5 12.7 2.4 8.2
2002-03-01 07:57:40 51°15.778 2°54.437 9.5 12.8 0.8 8.3
2002-03-01 07:57:45 51°15.796 2°54.435 7 12.8 359.3 8.4
2002-03-01 07:57:50 51°15.814 2°54.433 5.3 12.9 356.8 8.4
2002-03-01 07:57:55 51°15.831 2°54.431 4 12.9 355.8 8.5
2002-03-01 07:58:00 51°15.849 2°54.426 1.3 13 353.3 8.5
2002-03-01 07:58:05 51°15.867 2°54.422 0.5 13 351.9 8.6
2002-03-01 07:58:10 51°15.885 2°54.419 0.8 13 352 8.6
2002-03-01 07:58:15 51°15.903 2°54.415 2.2 13 352.6 8.7
2002-03-01 07:58:20 51°15.921 2°54.412 2.2 13.1 353.4 8.8
2002-03-01 07:58:24 51°15.936 2°54.41 2.7 13.1 353.7 8.8
2002-03-01 07:58:29 51°15.954 2°54.408 5 13.1 355.2 8.9
2002-03-01 07:58:35 51°15.973 2°54.407 6.8 12.7 356.6 8.9
2002-03-01 07:58:40 51°15.989 2°54.407 7.8 11.9 358.5 8.9
2002-03-01 07:58:45 51°16.004 2°54.408 11.2 11.5 0.3 9
2002-03-01 07:58:50 51°16.018 2°54.41 14 10.8 3.4 9.2
2002-03-01 07:58:55 51°16.031 2°54.413 17.3 10.1 5.8 9.4
2002-03-01 07:59:00 51°16.042 2°54.418 20.8 9 10 9.5
2002-03-01 07:59:05 51°16.053 2°54.423 24.8 8.2 14.2 9.6
2002-03-01 07:59:10 51°16.062 2°54.427 28.7 7.6 17.6 9.6
2002-03-01 07:59:15 51°16.071 2°54.433 31.2 7.1 19.7 9.6
2002-03-01 07:59:20 51°16.079 2°54.438 34.2 6.5 23.6 9.6
2002-03-01 07:59:24 51°16.085 2°54.443 36 6.1 24.6 9.6
2002-03-01 07:59:30 51°16.092 2°54.449 37.7 5.7 27.3 9.7
2002-03-01 07:59:35 51°16.098 2°54.455 38.8 5.4 28.1 9.7
2002-03-01 07:59:40 51°16.104 2°54.461 40.2 5 29.9 9.5
2002-03-01 07:59:45 51°16.109 2°54.466 40.7 4.8 30.4 9.6
2002-03-01 07:59:50 51°16.114 2°54.47 40.8 4.5 30.8 9.7
2002-03-01 07:59:55 51°16.119 2°54.476 41.7 4.3 31.9 9.6
2002-03-01 08:00:00 51°16.124 2°54.48 41 4 30.7 9.6
2002-03-01 08:00:05 51°16.128 2°54.484 41.7 3.8 32.4 9.6
2002-03-01 08:00:10 51°16.132 2°54.488 41.5 3.6 31.1 9.6
2002-03-01 08:00:15 51°16.136 2°54.492 42.2 3.5 32 9.7
2002-03-01 08:00:20 51°16.14 2°54.496 41.7 3.3 31.9 9.6
2002-03-01 08:00:25 51°16.143 2°54.5 42 3.1 31.6 9.6
2002-03-01 08:00:30 51°16.147 2°54.502 42 3 30.9 9.5
2002-03-01 08:00:35 51°16.15 2°54.506 41.8 2.9 30.3 9.6
2002-03-01 08:00:40 51°16.153 2°54.508 41.5 2.7 29.5 9.7
2002-03-01 08:00:45 51°16.156 2°54.512 41.3 2.6 30.9 9.7
2002-03-01 08:00:50 51°16.159 2°54.514 40.2 2.6 27.6 9.6
2002-03-01 08:00:55 51°16.162 2°54.517 40.3 2.4 28.7 9.6
2002-03-01 08:01:00 51°16.165 2°54.519 39.3 2.3 27.1 9.6
2002-03-01 08:01:05 51°16.167 2°54.522 39 2.3 28.1 9.6
2002-03-01 08:01:10 51°16.17 2°54.523 38.3 2.2 25.2 9.6
2002-03-01 08:01:15 51°16.173 2°54.524 36.8 2.1 25.2 9.6
2002-03-01 08:01:20 51°16.176 2°54.526 35.8 2 21.6 9.7
2002-03-01 08:01:25 51°16.178 2°54.527 34.8 2 20.6 9.7
2002-03-01 08:01:30 51°16.181 2°54.529 33.5 1.9 17.8 9.7
2002-03-01 08:01:35 51°16.183 2°54.529 33 1.8 15 9.7
2002-03-01 08:01:40 51°16.185 2°54.531 31.8 1.8 16.3 9.7
2002-03-01 08:01:45 51°16.188 2°54.532 30.7 1.7 12.2 9.5
2002-03-01 08:01:50 51°16.19 2°54.532 30.3 1.7 12.4 9.5
2002-03-01 08:01:55 51°16.192 2°54.533 29.7 1.6 10 9.5
2002-03-01 08:02:00 51°16.194 2°54.534 28.8 1.6 9.4 9.5
2002-03-01 08:02:05 51°16.196 2°54.534 29.2 1.5 8.3 9.5
2002-03-01 08:02:10 51°16.198 2°54.535 29 1.5 8.3 9.7
2002-03-01 08:02:15 51°16.2 2°54.535 28.3 1.5 5.5 9.6
2002-03-01 08:02:20 51°16.201 2°54.535 27.8 1.4 4.6 9.6
2002-03-01 08:02:25 51°16.203 2°54.535 27.7 1.4 4.4 9.6
2002-03-01 08:02:30 51°16.205 2°54.535 26.7 1.3 1.3 9.7
2002-03-01 08:02:35 51°16.207 2°54.535 26.5 1.3 359.3 9.6
2002-03-01 08:02:39 51°16.208 2°54.535 26.2 1.3 358.6 9.6
2002-03-01 08:02:45 51°16.21 2°54.535 25.5 1.2 358.7 9.7
2002-03-01 08:02:50 51°16.212 2°54.535 25.2 1.2 356.4 9.6
2002-03-01 08:02:55 51°16.213 2°54.534 25 1.2 355 9.6
2002-03-01 08:03:00 51°16.215 2°54.534 24.7 1.2 352.4 9.6
2002-03-01 08:03:05 51°16.216 2°54.534 24.3 1.1 352.7 9.6
2002-03-01 08:03:09 51°16.218 2°54.534 23.8 1.1 350.4 9.6
2002-03-01 08:03:15 51°16.22 2°54.533 23.5 1.1 353.3 9.6
2002-03-01 08:03:20 51°16.221 2°54.533 22.8 1.1 347.8 9.6
2002-03-01 08:03:25 51°16.223 2°54.532 23 1.1 349.6 9.6
2002-03-01 08:03:29 51°16.224 2°54.532 22.7 1.1 347 9.6
2002-03-01 08:03:35 51°16.225 2°54.531 22.3 1.1 346.2 9.7
2002-03-01 08:03:40 51°16.227 2°54.531 22.2 1.1 344.6 9.7
2002-03-01 08:03:45 51°16.229 2°54.529 22.3 1 343.9 9.7
2002-03-01 08:03:50 51°16.23 2°54.528 22 1 344.3 9.7
2002-03-01 08:03:55 51°16.232 2°54.527 21.7 1 344 9.7
2002-03-01 08:04:00 51°16.233 2°54.527 21 1 342.4 9.6
2002-03-01 08:04:05 51°16.234 2°54.526 21.2 1 338.8 9.6
2002-03-01 08:04:10 51°16.235 2°54.525 21 1 340.9 9.6
2002-03-01 08:04:15 51°16.237 2°54.524 20.7 1 337.9 9.7
2002-03-01 08:04:20 51°16.238 2°54.523 20.8 0.9 338.9 9.7
2002-03-01 08:04:25 51°16.239 2°54.523 20.3 0.9 337.8 9.6
2002-03-01 08:04:30 51°16.24 2°54.522 20.3 0.9 337.6 9.7
2002-03-01 08:04:35 51°16.241 2°54.521 20.2 0.9 336 9.7
2002-03-01 08:04:40 51°16.242 2°54.52 19.8 0.9 334.7 9.7
2002-03-01 08:04:45 51°16.243 2°54.519 19.7 1 331.2 9.7
2002-03-01 08:04:50 51°16.244 2°54.519 19.7 0.9 333.8 9.7
2002-03-01 08:04:54 51°16.245 2°54.518 19.5 0.9 329.1 9.7
2002-03-01 08:05:00 51°16.246 2°54.517 20 0.9 329.9 9.7
2002-03-01 08:05:05 51°16.247 2°54.516 19.2 0.9 329.5 9.7
2002-03-01 08:05:10 51°16.248 2°54.515 18.8 0.9 327.7 9.7
2002-03-01 08:05:15 51°16.249 2°54.514 18.7 0.8 329.5 9.7
2002-03-01 08:05:19 51°16.25 2°54.512 18 0.9 325 9.7
2002-03-01 08:05:25 51°16.251 2°54.512 18.5 0.8 328.4 9.7
2002-03-01 08:05:30 51°16.252 2°54.51 17.7 0.9 325.2 9.7
2002-03-01 08:05:35 51°16.253 2°54.509 17.8 0.8 330.4 9.7
2002-03-01 08:05:39 51°16.254 2°54.509 17.3 0.8 324.8 9.7
2002-03-01 08:05:45 51°16.255 2°54.507 17.3 0.8 325.5 9.7
2002-03-01 08:05:50 51°16.256 2°54.507 17.3 0.8 323.4 9.7
2002-03-01 08:05:55 51°16.257 2°54.506 17.2 0.8 323.7 9.7
2002-03-01 08:06:00 51°16.258 2°54.505 17 0.8 324.5 9.7
2002-03-01 08:06:05 51°16.258 2°54.503 16.2 0.8 323.2 9.7
2002-03-01 08:06:10 51°16.259 2°54.502 16 0.8 320.5 9.7
2002-03-01 08:06:15 51°16.26 2°54.501 16 0.8 320.7 9.7
2002-03-01 08:06:19 51°16.261 2°54.5 16.2 0.8 319 9.7
2002-03-01 08:06:25 51°16.262 2°54.499 16 0.7 320.7 9.7
2002-03-01 08:06:30 51°16.262 2°54.498 15.5 0.8 315.2 9.7
2002-03-01 08:06:35 51°16.263 2°54.497 15.7 0.7 320 9.7
2002-03-01 08:06:39 51°16.264 2°54.496 14.7 0.8 318 9.7
2002-03-01 08:06:43 51°16.264 2°54.495 14.3 0.8 318.7 9.7
2002-03-01 08:06:49 51°16.265 2°54.494 14.7 0.7 318.5 9.7
2002-03-01 08:06:55 51°16.266 2°54.492 14 0.8 315.3 9.7
2002-03-01 08:06:59 51°16.266 2°54.491 14.2 0.7 314.5 9.8
2002-03-01 08:07:05 51°16.267 2°54.49 13.8 0.8 311 9.8
2002-03-01 08:07:09 51°16.268 2°54.489 13.5 0.7 311.2 9.8
2002-03-01 08:07:14 51°16.268 2°54.488 13.3 0.7 310.5 9.8
2002-03-01 08:07:19 51°16.269 2°54.486 13.3 0.7 310.3 9.7
2002-03-01 08:07:25 51°16.27 2°54.485 12.8 0.8 306.6 9.7
2002-03-01 08:07:29 51°16.27 2°54.484 12.8 0.7 309.2 9.7
2002-03-01 08:07:35 51°16.271 2°54.482 11.8 0.8 304.8 9.7
2002-03-01 08:07:39 51°16.272 2°54.481 11.7 0.7 306.2 9.8
2002-03-01 08:07:45 51°16.272 2°54.479 11.2 0.8 302.4 9.8
2002-03-01 08:07:49 51°16.272 2°54.478 11 0.7 306.7 9.8
2002-03-01 08:07:54 51°16.273 2°54.477 10 0.7 303.2 9.8
2002-03-01 08:07:59 51°16.274 2°54.475 10.5 0.8 301.4 9.8
2002-03-01 08:08:05 51°16.274 2°54.474 10 0.7 304.1 9.8
2002-03-01 08:08:09 51°16.275 2°54.473 9.2 0.8 300.2 9.8
2002-03-01 08:08:14 51°16.275 2°54.471 8.8 0.8 298.3 9.8
2002-03-01 08:08:19 51°16.276 2°54.47 8.2 0.8 297.6 9.8
2002-03-01 08:08:23 51°16.276 2°54.468 7.5 0.8 297.6 9.8
2002-03-01 08:08:29 51°16.277 2°54.466 6.7 0.8 295.8 9.8
2002-03-01 08:08:34 51°16.277 2°54.465 6 0.8 296.4 9.8
2002-03-01 08:08:39 51°16.278 2°54.463 4.8 0.8 296.2 9.8
2002-03-01 08:08:45 51°16.278 2°54.461 3.7 0.8 296.9 9.8
2002-03-01 08:08:49 51°16.278 2°54.46 3.5 0.8 294.9 9.8
2002-03-01 08:08:54 51°16.279 2°54.458 3.2 0.8 296.3 9.8
2002-03-01 08:08:59 51°16.279 2°54.456 2.7 0.9 292.3 9.8
2002-03-01 08:09:05 51°16.28 2°54.455 2.3 0.8 294.2 9.8
2002-03-01 08:09:09 51°16.28 2°54.453 1.3 0.9 293.1 9.8
2002-03-01 08:09:14 51°16.281 2°54.451 1 0.8 291.8 9.8
2002-03-01 08:09:19 51°16.281 2°54.45 0.2 0.9 291.3 9.8
2002-03-01 08:09:25 51°16.281 2°54.447 359.7 0.9 291.8 9.8
2002-03-01 08:09:29 51°16.282 2°54.446 359 0.8 290.8 9.8
2002-03-01 08:09:34 51°16.282 2°54.444 358.5 0.9 288.4 9.8
2002-03-01 08:09:39 51°16.283 2°54.443 358.3 0.9 290.1 9.8
2002-03-01 08:09:45 51°16.283 2°54.44 357 0.9 286.8 9.8
2002-03-01 08:09:49 51°16.283 2°54.438 356.8 0.9 289.5 9.8
2002-03-01 08:09:54 51°16.284 2°54.437 355.8 0.9 286.9 9.8
2002-03-01 08:09:59 51°16.284 2°54.435 355.5 0.9 288.1 9.8
2002-03-01 08:10:05 51°16.284 2°54.432 355 0.9 286.4 9.8
2002-03-01 08:10:10 51°16.284 2°54.431 354.3 0.9 285.9 9.8
2002-03-01 08:10:15 51°16.285 2°54.428 354 0.9 283.9 9.9
2002-03-01 08:10:20 51°16.285 2°54.426 353.5 0.9 284.5 9.9
2002-03-01 08:10:25 51°16.285 2°54.424 352.7 1 283.4 9.8
2002-03-01 08:10:30 51°16.286 2°54.423 352.3 0.9 285.2 9.8
2002-03-01 08:10:35 51°16.286 2°54.42 352.2 0.9 281.9 9.9
2002-03-01 08:10:39 51°16.286 2°54.419 351.8 0.9 283.5 9.9
2002-03-01 08:10:45 51°16.286 2°54.416 351.2 1 282.1 9.9
2002-03-01 08:10:50 51°16.287 2°54.414 351 0.9 281.4 9.9
2002-03-01 08:10:55 51°16.287 2°54.412 350.5 1 280.1 9.8
2002-03-01 08:11:00 51°16.287 2°54.41 350 1 281 9.9
2002-03-01 08:11:05 51°16.287 2°54.408 349.5 1 279.9 9.9
2002-03-01 08:11:10 51°16.288 2°54.406 349 1 279.7 9.9
2002-03-01 08:11:15 51°16.288 2°54.404 348.8 1 280.1 9.9
2002-03-01 08:11:19 51°16.288 2°54.402 348 1 278.2 9.9
2002-03-01 08:11:25 51°16.288 2°54.399 347.7 1 279.8 9.9
2002-03-01 08:11:30 51°16.288 2°54.397 347 1 277.4 9.9
2002-03-01 08:11:35 51°16.289 2°54.395 346.7 1 278.6 9.9
2002-03-01 08:11:40 51°16.289 2°54.393 346.3 1 277.3 9.9
2002-03-01 08:11:45 51°16.289 2°54.391 345.7 1 278.6 9.9
2002-03-01 08:11:50 51°16.289 2°54.388 345.5 1 276.9 9.9
2002-03-01 08:11:55 51°16.289 2°54.386 345.2 1 278.3 9.6
2002-03-01 08:12:00 51°16.289 2°54.384 344.7 0.9 278.4 9.9
2002-03-01 08:12:05 51°16.29 2°54.382 345.2 0.9 277.5 9.9
2002-03-01 08:12:10 51°16.29 2°54.38 345.3 0.9 278.3 9.9
2002-03-01 08:12:15 51°16.29 2°54.378 345.2 0.9 276.2 9.9
2002-03-01 08:12:20 51°16.29 2°54.377 345.3 0.9 277.7 9.7
2002-03-01 08:12:25 51°16.29 2°54.374 345.3 0.9 275.2 9.8
2002-03-01 08:12:30 51°16.29 2°54.373 345.7 0.8 276.8 9.9
2002-03-01 08:12:35 51°16.29 2°54.37 345.7 0.9 276 9.9
2002-03-01 08:12:39 51°16.29 2°54.369 346 0.8 277.5 9.9
2002-03-01 08:12:45 51°16.29 2°54.366 345.5 0.9 274.9 9.3
2002-03-01 08:12:50 51°16.29 2°54.365 345.7 0.9 275.6 9.9
2002-03-01 08:12:55 51°16.29 2°54.362 345 0.9 272.4 9.9
2002-03-01 08:13:00 51°16.291 2°54.36 345.2 0.9 275 9.9
2002-03-01 08:13:05 51°16.291 2°54.358 344.3 1 273.3 10
2002-03-01 08:13:10 51°16.291 2°54.356 344.2 0.9 275.5 9.9
2002-03-01 08:13:15 51°16.291 2°54.354 343.7 0.9 273.2 10
2002-03-01 08:13:20 51°16.291 2°54.352 343.5 0.9 274.1 9.9
2002-03-01 08:13:25 51°16.291 2°54.35 343.2 0.9 273.3 9.9
2002-03-01 08:13:30 51°16.291 2°54.348 342.7 0.9 273.1 9.9
2002-03-01 08:13:35 51°16.291 2°54.346 342.2 1 271.5 10
2002-03-01 08:13:40 51°16.291 2°54.344 342 1 272.2 10
2002-03-01 08:13:45 51°16.291 2°54.342 341 1 271.1 10
2002-03-01 08:13:50 51°16.291 2°54.339 340.8 1 270.3 10
2002-03-01 08:13:55 51°16.291 2°54.337 340.2 1 271.2 10
2002-03-01 08:14:00 51°16.291 2°54.335 339.3 1 271.6 9.9
2002-03-01 08:14:05 51°16.291 2°54.333 338.8 1 271.8 10
2002-03-01 08:14:10 51°16.291 2°54.33 338.2 1.1 270.1 10
2002-03-01 08:14:15 51°16.291 2°54.328 337.8 1.1 271.2 9.9
2002-03-01 08:14:20 51°16.291 2°54.326 336.8 1.1 270.7 9.9
2002-03-01 08:14:25 51°16.291 2°54.323 336.7 1.1 270.3 10
2002-03-01 08:14:30 51°16.291 2°54.321 336 1.1 269.6 10
2002-03-01 08:14:35 51°16.291 2°54.319 335.5 1 269.2 10
2002-03-01 08:14:40 51°16.291 2°54.317 335.5 1 269.5 10
2002-03-01 08:14:45 51°16.291 2°54.314 335 1.1 268.9 10
2002-03-01 08:14:50 51°16.291 2°54.312 334.7 1.1 269.2 10
2002-03-01 08:14:55 51°16.291 2°54.31 334.5 1.1 269.6 10
2002-03-01 08:15:00 51°16.291 2°54.307 334 1.1 269.2 10
2002-03-01 08:15:05 51°16.291 2°54.305 333.8 1.1 269.4 10
2002-03-01 08:15:10 51°16.291 2°54.303 333.3 1.1 270.3 10
2002-03-01 08:15:15 51°16.291 2°54.3 332.8 1.1 268.3 10
2002-03-01 08:15:19 51°16.291 2°54.299 332.7 1.1 268.1 10
2002-03-01 08:15:25 51°16.29 2°54.296 332.2 1.1 266.5 10
2002-03-01 08:15:30 51°16.29 2°54.294 331.3 1.1 267.6 10
2002-03-01 08:15:35 51°16.29 2°54.291 331.2 1.1 267.9 10
2002-03-01 08:15:40 51°16.291 2°54.289 330.8 1 267.1 10
2002-03-01 08:15:45 51°16.291 2°54.286 330.5 1 266.7 10
2002-03-01 08:15:50 51°16.29 2°54.284 330.2 1.1 266.8 10
2002-03-01 08:15:55 51°16.29 2°54.281 329.8 1.1 264.7 10
2002-03-01 08:16:00 51°16.29 2°54.279 329.2 1.1 266.1 10
2002-03-01 08:16:05 51°16.29 2°54.277 329 1.1 264.6 9.8
2002-03-01 08:16:10 51°16.29 2°54.275 328.7 1 264.7 10
2002-03-01 08:16:15 51°16.29 2°54.273 328.5 1.1 265.8 10
2002-03-01 08:16:20 51°16.289 2°54.27 328.3 1.1 264.4 10
2002-03-01 08:16:25 51°16.289 2°54.268 328 1.1 264.4 10
2002-03-01 08:16:30 51°16.289 2°54.266 327.7 1.1 263.8 10
2002-03-01 08:16:35 51°16.289 2°54.263 327.3 1.1 264.9 10
2002-03-01 08:16:39 51°16.289 2°54.261 326.8 1.1 263.7 10
2002-03-01 08:16:45 51°16.289 2°54.258 326.7 1.1 265 10
2002-03-01 08:16:49 51°16.288 2°54.257 325.5 1.1 263.4 10
2002-03-01 08:16:55 51°16.288 2°54.254 325.3 1.1 263.3 10
2002-03-01 08:17:00 51°16.288 2°54.252 324.8 1.1 262.7 10.1
2002-03-01 08:17:05 51°16.288 2°54.249 324.2 1.1 263.8 10
2002-03-01 08:17:10 51°16.288 2°54.247 323.7 1.1 263.5 10
2002-03-01 08:17:15 51°16.287 2°54.245 323.2 1.1 263.4 9.8
2002-03-01 08:17:20 51°16.287 2°54.242 322.8 1.1 263.4 9.9
2002-03-01 08:17:25 51°16.287 2°54.24 322.7 1.1 263 10
2002-03-01 08:17:30 51°16.287 2°54.237 322.2 1.1 262.8 10
2002-03-01 08:17:35 51°16.287 2°54.235 322.2 1.1 264.1 10
2002-03-01 08:17:40 51°16.287 2°54.231 321.8 1.1 262.6 10
2002-03-01 08:17:45 51°16.287 2°54.229 321.7 1.1 262.9 10
2002-03-01 08:17:50 51°16.286 2°54.227 321.5 1.1 262.4 10
2002-03-01 08:17:55 51°16.286 2°54.224 321.5 1.1 262.4 10
2002-03-01 08:18:00 51°16.286 2°54.222 321.3 1.1 263.1 10
2002-03-01 08:18:05 51°16.286 2°54.219 320.8 1.1 261.8 10.1
2002-03-01 08:18:10 51°16.286 2°54.217 320.8 1.1 263.7 10.1
2002-03-01 08:18:15 51°16.285 2°54.214 320.5 1.1 262.5 10.1
2002-03-01 08:18:20 51°16.285 2°54.212 320.3 1.1 262.1 10.1
2002-03-01 08:18:25 51°16.285 2°54.209 320.3 1.1 262.8 10.1
2002-03-01 08:18:30 51°16.285 2°54.207 319.8 1.1 263.2 10.1
2002-03-01 08:18:35 51°16.284 2°54.204 319.8 1.1 263.7 10.1
2002-03-01 08:18:40 51°16.284 2°54.202 319.7 1.1 262.8 10.1
2002-03-01 08:18:45 51°16.284 2°54.199 319.7 1.1 262.4 10.1
2002-03-01 08:18:50 51°16.284 2°54.197 319.5 1.1 263.3 10.1
2002-03-01 08:18:55 51°16.284 2°54.194 319.5 1.1 261.8 10.1
2002-03-01 08:19:00 51°16.283 2°54.192 319.3 1.2 262.1 10.1
2002-03-01 08:19:05 51°16.283 2°54.189 319.2 1.1 263.6 10.1
2002-03-01 08:19:10 51°16.283 2°54.187 318.7 1.1 262.6 10.1
2002-03-01 08:19:15 51°16.283 2°54.184 318.8 1.1 262 10
2002-03-01 08:19:19 51°16.282 2°54.182 318.5 1.1 261.5 10.1
2002-03-01 08:19:25 51°16.282 2°54.18 318.7 1.1 261.7 10.1
2002-03-01 08:19:30 51°16.282 2°54.177 318.8 1.1 261.7 10.1
2002-03-01 08:19:35 51°16.282 2°54.174 318.3 1.1 262.2 10.1
2002-03-01 08:19:40 51°16.281 2°54.172 318.3 1.1 261.6 10.1
2002-03-01 08:19:45 51°16.281 2°54.17 318.5 1.1 262.1 10.1
2002-03-01 08:19:50 51°16.281 2°54.167 318.2 1.1 261.4 10.1
2002-03-01 08:19:55 51°16.281 2°54.165 318.7 1.1 262.3 10.1
2002-03-01 08:20:00 51°16.28 2°54.162 318.5 1.1 260.8 10.1
2002-03-01 08:20:05 51°16.28 2°54.16 318.3 1.1 260.5 10.1
2002-03-01 08:20:10 51°16.28 2°54.158 318.2 1.1 261.4 10.1
2002-03-01 08:20:15 51°16.28 2°54.155 318.5 1.1 262.8 10.1
2002-03-01 08:20:20 51°16.279 2°54.153 318.7 1.1 261.7 10.1
2002-03-01 08:20:25 51°16.279 2°54.15 318.7 1.1 261.5 10.1
2002-03-01 08:20:30 51°16.279 2°54.148 318.7 1.1 262.4 10.1
2002-03-01 08:20:35 51°16.279 2°54.146 318.8 1.1 262.4 10.1
2002-03-01 08:20:40 51°16.278 2°54.143 319.2 1.1 262.6 10.1
2002-03-01 08:20:45 51°16.278 2°54.141 319.3 1.1 262.5 10.1
2002-03-01 08:20:50 51°16.278 2°54.138 319.5 1.1 261.8 10.1
2002-03-01 08:20:55 51°16.278 2°54.136 319.7 1.1 262.2 10.1
2002-03-01 08:21:00 51°16.278 2°54.134 319.7 1.1 261.2 10.1
2002-03-01 08:21:05 51°16.277 2°54.132 319.7 1 262.5 10.1
2002-03-01 08:21:10 51°16.277 2°54.129 319.8 1.1 262.1 10.1
2002-03-01 08:21:15 51°16.277 2°54.127 319.8 1.1 262.2 10.1
2002-03-01 08:21:20 51°16.277 2°54.124 319.8 1.1 261.2 10.1
2002-03-01 08:21:24 51°16.276 2°54.123 320.2 1.1 261.3 10.2
2002-03-01 08:21:30 51°16.276 2°54.12 319.8 1.1 261.4 10.2
2002-03-01 08:21:35 51°16.276 2°54.117 320.2 1.1 260.8 10.2
2002-03-01 08:21:39 51°16.276 2°54.115 320 1.1 262 10.2
2002-03-01 08:21:45 51°16.275 2°54.112 320 1.1 260.6 10.1
2002-03-01 08:21:50 51°16.275 2°54.11 319.8 1.1 261.3 10.1
2002-03-01 08:21:55 51°16.275 2°54.108 319.7 1.1 260.1 10.1
2002-03-01 08:22:00 51°16.275 2°54.105 319.8 1.1 261.7 10.1
2002-03-01 08:22:05 51°16.274 2°54.103 319.7 1 260.7 10.2
2002-03-01 08:22:10 51°16.274 2°54.101 319.5 1.1 261.5 10.1
2002-03-01 08:22:15 51°16.274 2°54.098 319.5 1.1 261.3 10.2
2002-03-01 08:22:19 51°16.274 2°54.096 319.5 1.1 260.6 10.1
2002-03-01 08:22:25 51°16.273 2°54.093 319.8 1.1 261 10.1
2002-03-01 08:22:30 51°16.273 2°54.091 319.7 1.1 260.7 10.1
2002-03-01 08:22:35 51°16.273 2°54.088 320 1.1 260.6 10.1
2002-03-01 08:22:40 51°16.272 2°54.086 319.7 1.1 261.1 10.2
2002-03-01 08:22:45 51°16.272 2°54.084 319.8 1.1 259.9 10.2
2002-03-01 08:22:50 51°16.272 2°54.082 320.2 1.1 261.1 10.2
2002-03-01 08:22:55 51°16.272 2°54.079 320 1.1 261.5 9.9
2002-03-01 08:23:00 51°16.272 2°54.077 320.2 1.1 262 10
2002-03-01 08:23:05 51°16.271 2°54.074 320.7 1.1 261.6 10.1
2002-03-01 08:23:10 51°16.271 2°54.072 320.7 1.1 262.8 10.2
2002-03-01 08:23:15 51°16.271 2°54.069 320.7 1.1 262.1 10.2
2002-03-01 08:23:20 51°16.271 2°54.067 321.3 1.1 262.3 10.2
2002-03-01 08:23:25 51°16.27 2°54.065 320.8 1.1 261.6 10.2
2002-03-01 08:23:30 51°16.27 2°54.063 321.3 1.1 261.7 10.2
2002-03-01 08:23:35 51°16.27 2°54.06 321.3 1.1 262.9 10.2
2002-03-01 08:23:40 51°16.27 2°54.058 321.5 1.1 261.6 10.2
2002-03-01 08:23:45 51°16.269 2°54.056 321.7 1.1 261.9 10.2
2002-03-01 08:23:50 51°16.269 2°54.053 321.7 1.1 261.7 10.2
2002-03-01 08:23:55 51°16.269 2°54.051 321.8 1.1 261.4 10.2
2002-03-01 08:23:59 51°16.269 2°54.049 321.8 1.1 263.6 10.2
2002-03-01 08:24:05 51°16.268 2°54.046 321.7 1.1 262.1 10.2
2002-03-01 08:24:10 51°16.268 2°54.044 322 1.1 263.2 10.2
2002-03-01 08:24:15 51°16.268 2°54.041 321.8 1.1 262.3 10.2
2002-03-01 08:24:20 51°16.268 2°54.039 322.3 1.1 262.7 10.3
2002-03-01 08:24:25 51°16.268 2°54.037 322 1.1 263.4 10.2
2002-03-01 08:24:29 51°16.267 2°54.035 322.5 1.1 262.8 10.2
2002-03-01 08:24:35 51°16.267 2°54.032 322.3 1.1 263.4 10.2
2002-03-01 08:24:40 51°16.267 2°54.03 322.7 1.1 263.1 10.2
2002-03-01 08:24:45 51°16.267 2°54.027 323.2 1.1 263.2 10.2
2002-03-01 08:24:50 51°16.267 2°54.025 323.3 1.1 263.5 10.2
2002-03-01 08:24:55 51°16.267 2°54.023 323.3 1.1 262.9 10.2
2002-03-01 08:25:00 51°16.266 2°54.02 323.5 1.1 263 10.2
2002-03-01 08:25:05 51°16.266 2°54.018 323.7 1.1 264.9 10.2
2002-03-01 08:25:10 51°16.266 2°54.015 323.5 1.2 269.9 10.2
2002-03-01 08:25:15 51°16.267 2°54.011 323.3 1.5 281.6 10.2
2002-03-01 08:25:20 51°16.269 2°54.005 323 2.3 293 10.3
2002-03-01 08:25:25 51°16.273 2°53.997 322 3.5 302.8 10.2
2002-03-01 08:25:30 51°16.278 2°53.988 322 4 304.2 10.2
2002-03-01 08:25:35 51°16.284 2°53.976 324 6.1 308.8 10.2
2002-03-01 08:25:40 51°16.291 2°53.964 327.5 7.1 311.5 10.2
2002-03-01 08:25:45 51°16.3 2°53.949 328.5 8 314.2 10.2
2002-03-01 08:25:50 51°16.31 2°53.933 326.7 9.3 314.4 10.2
2002-03-01 08:25:55 51°16.32 2°53.916 325.5 10 314.4 10.2
2002-03-01 08:26:00 51°16.332 2°53.898 326 10.9 314.5 10.2
2002-03-01 08:26:05 51°16.344 2°53.881 328.3 11.3 315.9 10.2
2002-03-01 08:26:10 51°16.356 2°53.864 330.7 11.8 318.1 10.2
2002-03-01 08:26:15 51°16.369 2°53.846 331 12.1 319.6 10.3
2002-03-01 08:26:19 51°16.379 2°53.831 327.8 12.4 318.2 10.3
2002-03-01 08:26:25 51°16.395 2°53.807 325.8 12.8 315.8 10.3
2002-03-01 08:26:30 51°16.407 2°53.787 325.8 12.9 315.2 10.3
2002-03-01 08:26:35 51°16.42 2°53.767 326.5 13.1 315.5 10.3
2002-03-01 08:26:39 51°16.431 2°53.75 326.2 13.2 315.5 10.3
2002-03-01 08:26:45 51°16.446 2°53.725 325.3 13.3 315.1 10.3
2002-03-01 08:26:50 51°16.46 2°53.704 325.2 13.4 315.1 10.3
2002-03-01 08:26:55 51°16.473 2°53.684 326 13.4 315.4 10.4
2002-03-01 08:26:59 51°16.484 2°53.668 327.8 13.5 316.7 10.4
2002-03-01 08:27:05 51°16.501 2°53.644 327.8 13.5 317.6 10.4
2002-03-01 08:27:10 51°16.514 2°53.624 327.3 13.5 317.5 10.4
2002-03-01 08:27:15 51°16.527 2°53.603 326.7 13.5 317 10.4
2002-03-01 08:27:20 51°16.541 2°53.583 326.2 13.6 316.4 10.4
2002-03-01 08:27:25 51°16.554 2°53.562 326 13.6 316.3 10.3
2002-03-01 08:27:29 51°16.566 2°53.546 327 13.6 316.9 10.3
2002-03-01 08:27:35 51°16.583 2°53.523 329.2 13.5 318.2 10.3
2002-03-01 08:27:40 51°16.598 2°53.505 331.3 13.5 320.8 10.2
2002-03-01 08:27:45 51°16.612 2°53.486 332.2 13.5 322 10.1
2002-03-01 08:27:50 51°16.627 2°53.468 331.8 13.4 322.3 10.1
2002-03-01 08:27:55 51°16.641 2°53.448 329.7 13.4 321.1 10.1
2002-03-01 08:28:00 51°16.655 2°53.429 328.3 13.5 319.5 9.9
2002-03-01 08:28:05 51°16.67 2°53.409 328.5 13.5 319.2 9.9
2002-03-01 08:28:10 51°16.684 2°53.391 329.3 13.4 319.5 9.8
2002-03-01 08:28:15 51°16.698 2°53.373 331.3 13.4 321.2 9.7
2002-03-01 08:28:20 51°16.713 2°53.354 331 13.4 321.8 9.7
2002-03-01 08:28:25 51°16.727 2°53.335 328.8 13.4 320.8 9.6
2002-03-01 08:28:30 51°16.74 2°53.315 326.5 13.4 318.7 9.5
2002-03-01 08:28:35 51°16.754 2°53.294 325.2 13.4 317.2 9.5
2002-03-01 08:28:39 51°16.765 2°53.278 326.5 13.4 317.1 9.4
2002-03-01 08:28:45 51°16.782 2°53.256 328.7 13.3 319.2 9.3
2002-03-01 08:28:50 51°16.796 2°53.236 328.5 13.3 319.5 9.3
2002-03-01 08:28:55 51°16.809 2°53.217 327.8 13.3 319.4 9.2
2002-03-01 08:29:00 51°16.823 2°53.197 326.2 13.3 318.2 9.1
2002-03-01 08:29:05 51°16.836 2°53.177 325.5 13.3 317.3 8.3
2002-03-01 08:29:10 51°16.85 2°53.158 326 13.2 317.4 7.8
2002-03-01 08:29:15 51°16.863 2°53.139 327.7 13.1 317.8 7
2002-03-01 08:29:20 51°16.876 2°53.122 328.8 12.7 319.8 6.7
2002-03-01 08:29:25 51°16.889 2°53.105 328.2 12.2 319.2 6.6
2002-03-01 08:29:30 51°16.901 2°53.087 327.7 11.9 318.6 6.6
2002-03-01 08:29:35 51°16.913 2°53.07 327.2 11.7 318.1 6.4
2002-03-01 08:29:40 51°16.925 2°53.054 328 11.6 318.2 6.6
2002-03-01 08:29:45 51°16.937 2°53.038 329.5 11.5 320 6.4
2002-03-01 08:29:50 51°16.95 2°53.022 331.3 11.5 321.3 6.4
2002-03-01 08:29:55 51°16.963 2°53.007 332.8 11.5 322.7 6.6
2002-03-01 08:29:59 51°16.973 2°52.995 332.2 11.6 323.1 6.5
2002-03-01 08:30:05 51°16.988 2°52.976 331.2 11.6 322.2 6.8
2002-03-01 08:30:10 51°17.001 2°52.959 331.2 11.7 321.7 6.8
2002-03-01 08:30:15 51°17.014 2°52.944 332.3 11.8 322.3 6.7
2002-03-01 08:30:20 51°17.027 2°52.928 332.8 11.9 322.8 6.9
2002-03-01 08:30:25 51°17.041 2°52.912 332.8 11.9 323.1 7.3
2002-03-01 08:30:30 51°17.055 2°52.897 334.3 12.1 324.5 7.2
2002-03-01 08:30:35 51°17.069 2°52.882 336 12.2 325.8 7.9
2002-03-01 08:30:40 51°17.084 2°52.868 337.8 12.3 328.1 7.7
2002-03-01 08:30:45 51°17.099 2°52.855 340.3 12.4 329.9 7.8
2002-03-01 08:30:49 51°17.111 2°52.844 339.7 12.5 331.2 8
2002-03-01 08:30:55 51°17.13 2°52.827 338.7 12.6 330.1 8
2002-03-01 08:31:00 51°17.145 2°52.813 339.2 12.7 330 8.1
2002-03-01 08:31:05 51°17.161 2°52.8 340.5 12.8 330.7 7.9
2002-03-01 08:31:10 51°17.177 2°52.788 342.7 12.8 332.2 8
2002-03-01 08:31:15 51°17.193 2°52.777 345.3 12.7 335.5 8
2002-03-01 08:31:20 51°17.209 2°52.766 345.2 12.6 336.7 8.1
2002-03-01 08:31:25 51°17.225 2°52.756 347.2 12.5 337.5 8
2002-03-01 08:31:30 51°17.241 2°52.747 349.2 12.5 339.5 7.9
2002-03-01 08:31:35 51°17.257 2°52.738 349.5 12.4 340.2 7.8
2002-03-01 08:31:40 51°17.273 2°52.728 348.3 12.4 339.7 7.8
2002-03-01 08:31:45 51°17.289 2°52.716 345.8 12.4 337 7.7
2002-03-01 08:31:50 51°17.304 2°52.703 342.8 12.4 334.2 7.8
2002-03-01 08:31:55 51°17.318 2°52.687 337.5 12.4 330.3 7.9
2002-03-01 08:32:00 51°17.331 2°52.668 331.2 12.5 322.9 7.8
2002-03-01 08:32:05 51°17.343 2°52.647 324.2 12.6 317.5 8
2002-03-01 08:32:10 51°17.353 2°52.624 318 12.7 309.5 8.1
2002-03-01 08:32:14 51°17.36 2°52.604 311.8 12.8 303.2 8.2
2002-03-01 08:32:20 51°17.37 2°52.574 309.2 12.9 299.4 7.9
2002-03-01 08:32:25 51°17.377 2°52.547 305.3 13.1 296 8.2
2002-03-01 08:32:29 51°17.383 2°52.526 303 13.1 294 8.5
2002-03-01 08:32:35 51°17.391 2°52.493 301 13.3 291.5 8.6
2002-03-01 08:32:40 51°17.397 2°52.465 299.3 13.3 290.3 8.5
2002-03-01 08:32:45 51°17.403 2°52.436 298.2 13.4 289 8.5
2002-03-01 08:32:50 51°17.408 2°52.408 296.2 13.5 287.5 8.5
2002-03-01 08:32:55 51°17.412 2°52.379 294.5 13.5 285.7 8.6
2002-03-01 08:32:59 51°17.416 2°52.355 292.5 13.6 284.1 8.5
2002-03-01 08:33:05 51°17.42 2°52.319 290 13.7 281.3 8.6
2002-03-01 08:33:10 51°17.422 2°52.289 288 13.7 279.7 8.6
2002-03-01 08:33:15 51°17.424 2°52.259 286.3 13.7 277.3 8.6
2002-03-01 08:33:20 51°17.426 2°52.229 284.3 13.8 275.7 8.5
2002-03-01 08:33:25 51°17.427 2°52.198 283 13.8 274.4 8.6
2002-03-01 08:33:30 51°17.428 2°52.167 283.2 13.9 273.8 8.6
2002-03-01 08:33:35 51°17.43 2°52.137 284.2 13.8 274.8 8.6
2002-03-01 08:33:40 51°17.433 2°52.107 284.8 13.8 275.6 8.7
2002-03-01 08:33:45 51°17.434 2°52.076 285.5 13.8 276 8.6
2002-03-01 08:33:50 51°17.436 2°52.046 284.7 13.8 275.9 8.8
2002-03-01 08:33:54 51°17.437 2°52.021 282.5 13.8 274.3 8.6
2002-03-01 08:33:59 51°17.436 2°51.99 279.2 13.8 270.9 8.6
2002-03-01 08:34:05 51°17.433 2°51.954 273.7 13.9 265.1 8.7
2002-03-01 08:34:09 51°17.429 2°51.93 267.5 13.9 259.8 8.5
2002-03-01 08:34:15 51°17.421 2°51.896 260.5 13.9 252.6 8.7
2002-03-01 08:34:20 51°17.412 2°51.869 252.7 13.9 246.4 8.7
2002-03-01 08:34:25 51°17.401 2°51.843 246.5 13.9 239.2 8.6
2002-03-01 08:34:30 51°17.389 2°51.819 241.2 13.9 235.3 8.8
2002-03-01 08:34:35 51°17.375 2°51.797 233.8 13.9 228.3 8.4
2002-03-01 08:34:39 51°17.363 2°51.781 227.3 13.9 223.3 8.3
2002-03-01 08:34:45 51°17.344 2°51.762 219.2 13.8 217.8 8.8
2002-03-01 08:34:50 51°17.327 2°51.75 211.3 13.6 209.2 9.1
2002-03-01 08:34:55 51°17.308 2°51.742 203.7 13.7 200.8 9.2
2002-03-01 08:34:59 51°17.293 2°51.736 197.8 13.9 195.6 9.4
2002-03-01 08:35:05 51°17.27 2°51.733 190.2 13.9 191.1 8.6
2002-03-01 08:35:09 51°17.254 2°51.733 183.2 13.8 183.1 9
2002-03-01 08:35:15 51°17.232 2°51.736 177.3 13.8 178.7 9.3
2002-03-01 08:35:19 51°17.217 2°51.739 173.7 13.8 173.8 9.4
2002-03-01 08:35:25 51°17.195 2°51.746 170.8 13.7 172 9.5
2002-03-01 08:35:29 51°17.18 2°51.752 167.3 13.5 167.8 9.5
2002-03-01 08:35:35 51°17.158 2°51.763 162.8 13.6 164.6 9.4
2002-03-01 08:35:39 51°17.144 2°51.773 159 13.8 160 9.2
2002-03-01 08:35:45 51°17.122 2°51.788 156 14 158 9.2
2002-03-01 08:35:49 51°17.108 2°51.798 154.8 14 156 9.2
2002-03-01 08:35:55 51°17.088 2°51.814 153.7 13.8 154.5 9.2
2002-03-01 08:35:59 51°17.074 2°51.824 152.8 13.7 154.2 9.2
2002-03-01 08:36:05 51°17.054 2°51.841 152.8 13.7 153.9 9.2
2002-03-01 08:36:09 51°17.04 2°51.852 152.5 13.7 153.5 9.3
2002-03-01 08:36:15 51°17.02 2°51.869 151.2 13.7 153.3 9.1
2002-03-01 08:36:19 51°17.006 2°51.88 151.5 14.1 152.4 9
2002-03-01 08:36:25 51°16.985 2°51.897 151.5 14.2 152.4 9
2002-03-01 08:36:29 51°16.971 2°51.909 151.2 14 152.5 9
2002-03-01 08:36:35 51°16.951 2°51.926 151 13.7 152.1 8.9
2002-03-01 08:36:39 51°16.938 2°51.937 151.8 13.7 152.6 8.7
2002-03-01 08:36:45 51°16.917 2°51.954 151.3 13.7 152.7 8.4
2002-03-01 08:36:49 51°16.904 2°51.967 149.5 13.8 150.9 8.3
2002-03-01 08:36:55 51°16.883 2°51.986 148.5 14.1 149.9 8.3
2002-03-01 08:36:59 51°16.869 2°51.997 149.7 14.1 150.8 8.4
2002-03-01 08:37:05 51°16.849 2°52.015 150.3 14 151.1 8.4
2002-03-01 08:37:09 51°16.836 2°52.027 149.3 13.8 150.8 8.4
2002-03-01 08:37:15 51°16.817 2°52.045 149.2 13.7 150.4 8.3
2002-03-01 08:37:19 51°16.803 2°52.057 149.3 13.8 150.4 8.4
2002-03-01 08:37:25 51°16.783 2°52.075 149.8 13.9 150.4 8.4
2002-03-01 08:37:29 51°16.769 2°52.087 150.8 14.1 151.4 8.5
2002-03-01 08:37:35 51°16.749 2°52.104 151.3 13.8 151.9 8.4
2002-03-01 08:37:39 51°16.736 2°52.115 150.2 13.5 151.3 8.4
2002-03-01 08:37:45 51°16.716 2°52.134 149 13.4 149.8 8.3
2002-03-01 08:37:49 51°16.703 2°52.146 149.5 13.7 149.8 8.4
2002-03-01 08:37:55 51°16.682 2°52.165 150 14.1 150 8.4
2002-03-01 08:37:59 51°16.668 2°52.177 150.8 14.4 151 8.6
2002-03-01 08:38:05 51°16.647 2°52.196 150 14.4 151 8.7
2002-03-01 08:38:09 51°16.633 2°52.209 150 14 150.1 8.9
2002-03-01 08:38:15 51°16.613 2°52.227 149.3 13.9 150.3 9
2002-03-01 08:38:19 51°16.6 2°52.239 150 13.8 150.1 9.1
2002-03-01 08:38:25 51°16.58 2°52.258 149.5 13.8 150.4 9.1
2002-03-01 08:38:29 51°16.566 2°52.271 149.7 14 149.8 9.2
2002-03-01 08:38:35 51°16.546 2°52.29 149.7 14.1 150.1 9.2
2002-03-01 08:38:39 51°16.532 2°52.303 149 14.3 148.9 9.4
2002-03-01 08:38:45 51°16.512 2°52.323 146.8 14.3 147.4 9.7
2002-03-01 08:38:49 51°16.499 2°52.337 145.8 14.2 146.3 9.9
2002-03-01 08:38:55 51°16.48 2°52.358 145.7 14.1 146 10
2002-03-01 08:38:59 51°16.467 2°52.372 145.3 14 146.1 10.1
2002-03-01 08:39:05 51°16.448 2°52.393 145.2 14 145.6 10.1
2002-03-01 08:39:09 51°16.434 2°52.407 145.5 14.2 145.9 10.2
2002-03-01 08:39:15 51°16.415 2°52.429 144.5 14.2 145.8 10.3
2002-03-01 08:39:19 51°16.402 2°52.443 144.7 14.1 144.7 10.4
2002-03-01 08:39:25 51°16.383 2°52.464 145.3 14 145.9 10.5
2002-03-01 08:39:29 51°16.37 2°52.477 145.7 13.9 146 10.6
2002-03-01 08:39:35 51°16.351 2°52.499 144.7 14 144.9 10.6
2002-03-01 08:39:39 51°16.338 2°52.514 144.2 14.1 144.6 10.6
2002-03-01 08:39:45 51°16.319 2°52.535 145.2 14.2 145 10.7
2002-03-01 08:39:49 51°16.306 2°52.547 146.2 14.1 146.9 10.7
2002-03-01 08:39:55 51°16.288 2°52.567 146.7 13.9 146.9 10.8
2002-03-01 08:39:59 51°16.275 2°52.58 146.2 13.8 147.5 10.9
2002-03-01 08:40:05 51°16.255 2°52.6 147 13.9 147.5 10.9
2002-03-01 08:40:09 51°16.242 2°52.613 146.7 14 147.9 10.9
2002-03-01 08:40:15 51°16.223 2°52.634 145.3 14.1 147.4 10.9
2002-03-01 08:40:19 51°16.21 2°52.648 144.2 13.9 145.5 10.9
2002-03-01 08:40:25 51°16.191 2°52.668 145 13.7 145.3 11
2002-03-01 08:40:29 51°16.179 2°52.682 145 13.7 146.1 10.8
2002-03-01 08:40:35 51°16.159 2°52.702 145.5 13.8 145.8 10.8
2002-03-01 08:40:39 51°16.146 2°52.716 145 14 146.3 10.8
2002-03-01 08:40:45 51°16.127 2°52.737 144.7 14 145.7 10.9
2002-03-01 08:40:49 51°16.115 2°52.75 144.3 13.7 146.1 10.9
2002-03-01 08:40:55 51°16.096 2°52.771 143.8 13.6 145.5 10.8
2002-03-01 08:40:59 51°16.083 2°52.785 144 13.8 145.1 10.7
2002-03-01 08:41:05 51°16.064 2°52.805 144.7 13.9 146.3 10.7
2002-03-01 08:41:10 51°16.048 2°52.822 145.3 13.8 146.4 10.8
2002-03-01 08:41:15 51°16.032 2°52.837 145.5 13.5 147.4 10.8
2002-03-01 08:41:19 51°16.02 2°52.851 144.8 13.4 146.9 10.6
2002-03-01 08:41:23 51°16.008 2°52.865 143.7 13.5 146.1 10.6
2002-03-01 08:41:29 51°15.989 2°52.886 144 13.8 145.4 10.5
2002-03-01 08:41:35 51°15.97 2°52.907 143 13.8 145.6 10.5
2002-03-01 08:41:39 51°15.958 2°52.921 142.8 13.7 144.6 10.6
2002-03-01 08:41:45 51°15.939 2°52.941 143.7 13.6 145.1 10.5
2002-03-01 08:41:49 51°15.926 2°52.953 144.2 13.6 146.2 10.5
2002-03-01 08:41:55 51°15.908 2°52.974 144.2 13.5 145.9 10.4
2002-03-01 08:41:59 51°15.896 2°52.988 142.5 13.4 144.9 10.3
2002-03-01 08:42:05 51°15.878 2°53.009 141.8 13.3 143.2 10.3
2002-03-01 08:42:10 51°15.863 2°53.026 141.7 13.3 143.7 10.2
2002-03-01 08:42:15 51°15.847 2°53.043 142.8 13.6 144.4 10.1
2002-03-01 08:42:19 51°15.835 2°53.057 143.5 13.7 145.2 10.1
2002-03-01 08:42:25 51°15.817 2°53.079 142 13.7 144.7 10.1
2002-03-01 08:42:29 51°15.805 2°53.094 139.7 13.6 142.2 10.1
2002-03-01 08:42:35 51°15.788 2°53.117 139 13.5 141 10.1
2002-03-01 08:42:39 51°15.776 2°53.131 140 13.3 141.2 10.1
2002-03-01 08:42:45 51°15.758 2°53.152 141.2 13.2 142.1 9.9
2002-03-01 08:42:50 51°15.743 2°53.169 141.7 13.3 142.9 9.9
2002-03-01 08:42:55 51°15.728 2°53.187 141.8 13.4 143.5 9.8
2002-03-01 08:43:00 51°15.712 2°53.205 142.2 13.6 144.1 9.7
2002-03-01 08:43:05 51°15.697 2°53.224 142.3 13.8 144 9.8
2002-03-01 08:43:09 51°15.685 2°53.238 142.7 13.7 143.9 9.9
2002-03-01 08:43:15 51°15.667 2°53.258 144.2 13.5 145.2 9.8
2002-03-01 08:43:20 51°15.652 2°53.276 142.7 13.4 144.5 9.7
2002-03-01 08:43:25 51°15.637 2°53.295 141 13.5 142.9 9.7
2002-03-01 08:43:29 51°15.626 2°53.309 141 13.4 141.7 9.7
2002-03-01 08:43:35 51°15.609 2°53.331 141.3 13.3 142.4 9.6
2002-03-01 08:43:39 51°15.597 2°53.345 142.3 13.3 142.8 9.5
2002-03-01 08:43:45 51°15.579 2°53.367 141.3 13.5 142.5 9.4
2002-03-01 08:43:49 51°15.567 2°53.382 140.2 13.6 141.8 9.4
2002-03-01 08:43:55 51°15.549 2°53.404 141.3 13.6 141.3 9.3
2002-03-01 08:43:59 51°15.537 2°53.419 141.3 13.6 142.2 9.2
2002-03-01 08:44:05 51°15.519 2°53.441 141.5 13.6 142.5 9.2
2002-03-01 08:44:09 51°15.508 2°53.456 139.8 13.5 141.1 9.1
2002-03-01 08:44:15 51°15.491 2°53.478 139.8 13.3 140.7 9.1
2002-03-01 08:44:19 51°15.479 2°53.492 140.7 13.2 141.4 8.9
2002-03-01 08:44:25 51°15.461 2°53.514 141.3 13.3 141.9 8.8
2002-03-01 08:44:29 51°15.449 2°53.528 141.7 13.4 142.7 8.7
2002-03-01 08:44:35 51°15.431 2°53.551 140.8 13.6 141.9 8.6
2002-03-01 08:44:39 51°15.42 2°53.566 140.3 13.6 141.4 8.7
2002-03-01 08:44:45 51°15.402 2°53.587 141.2 13.5 141.8 8.6
2002-03-01 08:44:49 51°15.391 2°53.602 141.5 13.2 142.3 8.5
2002-03-01 08:44:55 51°15.374 2°53.624 140.5 13.1 141.5 8.3
2002-03-01 08:44:59 51°15.362 2°53.639 140.5 13.3 141 8.3
2002-03-01 08:45:05 51°15.345 2°53.662 140 13.5 140.5 8.3
2002-03-01 08:45:09 51°15.333 2°53.677 140.3 13.5 140.9 8.3
2002-03-01 08:45:15 51°15.316 2°53.699 140.7 13.5 141.1 8.2
2002-03-01 08:45:20 51°15.302 2°53.718 140.5 13.4 141.3 8.1
2002-03-01 08:45:23 51°15.293 2°53.729 140 13.4 140.6 8.1
2002-03-01 08:45:29 51°15.276 2°53.752 139.7 13.4 140.3 8
2002-03-01 08:45:35 51°15.259 2°53.775 139.3 13.3 139.6 8
2002-03-01 08:45:39 51°15.248 2°53.789 140 13.2 140.6 7.9
2002-03-01 08:45:45 51°15.231 2°53.81 141.3 13.1 141 7.8
2002-03-01 08:45:49 51°15.219 2°53.824 141 13 141.8 7.8
2002-03-01 08:45:55 51°15.202 2°53.847 140.2 13.1 141.2 7.6
2002-03-01 08:45:59 51°15.19 2°53.862 140.3 13.2 140.7 7.6
2002-03-01 08:46:03 51°15.179 2°53.877 140.2 13.3 140.3 7.7
2002-03-01 08:46:09 51°15.162 2°53.9 139.2 13.4 140 7.8
2002-03-01 08:46:15 51°15.145 2°53.923 139 13.4 139.1 7.6
2002-03-01 08:46:19 51°15.134 2°53.939 139.2 13.3 139.3 7.7
2002-03-01 08:46:25 51°15.117 2°53.96 139.8 13.1 140 7.6
2002-03-01 08:46:29 51°15.107 2°53.975 140 12.9 140.1 7.6
2002-03-01 08:46:35 51°15.09 2°53.997 139.2 12.9 139.8 7.6
2002-03-01 08:46:39 51°15.079 2°54.012 140.2 13 139.8 7.3
2002-03-01 08:46:45 51°15.062 2°54.033 141.3 13.1 141.2 7.3
2002-03-01 08:46:49 51°15.051 2°54.048 140.7 13 140.9 7.3
2002-03-01 08:46:55 51°15.034 2°54.07 140 12.9 139.9 7.2
2002-03-01 08:46:59 51°15.024 2°54.086 138.7 12.9 138.9 7.1
2002-03-01 08:47:05 51°15.007 2°54.109 138.5 13 138.7 7
2002-03-01 08:47:09 51°14.997 2°54.125 138.7 13.1 138 6.8
2002-03-01 08:47:15 51°14.981 2°54.147 138 13.1 138.3 7
2002-03-01 08:47:19 51°14.971 2°54.161 138.8 12.5 138.4 7
2002-03-01 08:47:25 51°14.956 2°54.181 139.3 12.1 139.1 7
2002-03-01 08:47:29 51°14.946 2°54.194 140.8 11.7 140.6 6.8
2002-03-01 08:47:35 51°14.931 2°54.213 141.3 11.6 141.2 6.9
2002-03-01 08:47:39 51°14.921 2°54.226 138.8 11.5 140.4 7.1
2002-03-01 08:47:45 51°14.908 2°54.247 136.5 11.2 137.1 7.1
2002-03-01 08:47:50 51°14.897 2°54.263 135.5 10.9 136.3 7.5
2002-03-01 08:47:54 51°14.889 2°54.276 135 10.5 135.5 7.7
2002-03-01 08:47:59 51°14.879 2°54.291 134 10.2 135.1 7.8
2002-03-01 08:48:05 51°14.868 2°54.309 133.7 9.9 134.8 8
2002-03-01 08:48:09 51°14.861 2°54.321 134.2 9.4 135 8.2
2002-03-01 08:48:15 51°14.85 2°54.338 135.7 9.2 135.7 8
2002-03-01 08:48:19 51°14.843 2°54.348 136 9.2 137.2 8
2002-03-01 08:48:25 51°14.832 2°54.366 136.3 9.1 136.5 8.1
2002-03-01 08:48:29 51°14.825 2°54.376 136 9 137.4 8.3
2002-03-01 08:48:35 51°14.814 2°54.391 136.7 8.8 137.3 8.5
2002-03-01 08:48:39 51°14.807 2°54.401 135.8 8.4 137.2 8.4
2002-03-01 08:48:45 51°14.798 2°54.416 136.2 8.3 137.1 8.2
2002-03-01 08:48:49 51°14.791 2°54.425 135.5 8.1 137.2 8.4
2002-03-01 08:48:53 51°14.785 2°54.434 136.3 7.8 137.2 8.5
2002-03-01 08:48:59 51°14.776 2°54.447 136.3 7.5 137.8 8.2
2002-03-01 08:49:05 51°14.766 2°54.461 135.5 7.5 137.4 8.4
2002-03-01 08:49:09 51°14.76 2°54.469 136.3 7.4 138 8.5
2002-03-01 08:49:15 51°14.752 2°54.483 135 7.2 136.8 8.5
2002-03-01 08:49:20 51°14.744 2°54.493 134.7 7 136.6 8.4
2002-03-01 08:49:25 51°14.737 2°54.504 134 7 136.3 8.3
2002-03-01 08:49:29 51°14.732 2°54.512 134.2 7 135.9 8.3
2002-03-01 08:49:35 51°14.724 2°54.525 133.8 6.9 136.2 8.5
2002-03-01 08:49:40 51°14.717 2°54.534 134 6.8 136.3 8.4
2002-03-01 08:49:45 51°14.71 2°54.545 134.8 6.7 136.3 8.3
2002-03-01 08:49:49 51°14.705 2°54.553 134.8 6.7 137.2 8.4
2002-03-01 08:49:55 51°14.697 2°54.565 135.2 6.7 137.1 8.4
2002-03-01 08:49:59 51°14.691 2°54.572 134.7 6.6 137.4 8.4
2002-03-01 08:50:05 51°14.684 2°54.584 134.8 6.5 137.4 8.3
2002-03-01 08:50:09 51°14.678 2°54.592 134 6.5 137.2 8.3
2002-03-01 08:50:15 51°14.67 2°54.604 135.2 6.5 137 8.3
2002-03-01 08:50:19 51°14.665 2°54.611 134.8 6.4 137.7 8.3
2002-03-01 08:50:25 51°14.658 2°54.623 135 6.4 137.1 8.2
2002-03-01 08:50:29 51°14.652 2°54.631 134.3 6.3 136.2 8.1
2002-03-01 08:50:35 51°14.645 2°54.642 133.8 6.4 135.3 8.2
2002-03-01 08:50:39 51°14.64 2°54.65 133.5 6.2 134.5 8.3
2002-03-01 08:50:45 51°14.633 2°54.662 133.3 6.1 134.4 8.2
2002-03-01 08:50:49 51°14.628 2°54.67 133 6.2 133.7 8.2
2002-03-01 08:50:55 51°14.621 2°54.681 132.3 6.2 133.8 8.3
2002-03-01 08:50:59 51°14.616 2°54.689 132.7 6.1 133.1 8.2
2002-03-01 08:51:05 51°14.609 2°54.7 133.2 6 134.1 8.2
2002-03-01 08:51:09 51°14.605 2°54.708 133.8 6.1 134.3 8.2
2002-03-01 08:51:15 51°14.598 2°54.719 134.8 5.9 136.2 8.3
2002-03-01 08:51:19 51°14.593 2°54.725 136.2 5.8 136.9 8.3
2002-03-01 08:51:25 51°14.586 2°54.735 136 5.7 137.5 8.3
2002-03-01 08:51:29 51°14.581 2°54.741 135.5 5.5 137.3 8.3
2002-03-01 08:51:33 51°14.577 2°54.747 135.2 5.2 137.7 8.3
2002-03-01 08:51:39 51°14.571 2°54.756 134.8 5 137.1 8.4
2002-03-01 08:51:46 51°14.565 2°54.766 134.3 4.7 136.8 8.3
2002-03-01 08:51:50 51°14.562 2°54.771 134.2 4.5 136.5 8.4
2002-03-01 08:51:55 51°14.557 2°54.777 133.7 4.4 136.3 8.4
2002-03-01 08:52:00 51°14.553 2°54.784 133.7 4.2 136.5 8.4
2002-03-01 08:52:05 51°14.549 2°54.79 133.8 4.1 136.4 8.4
2002-03-01 08:52:09 51°14.546 2°54.794 133.5 4 136.5 8.4
2002-03-01 08:52:15 51°14.541 2°54.801 133.7 3.8 137.2 8.4
2002-03-01 08:52:19 51°14.538 2°54.805 133.7 3.7 137 8.5
2002-03-01 08:52:25 51°14.534 2°54.811 133.5 3.6 137.1 8.5
2002-03-01 08:52:30 51°14.531 2°54.816 133.7 3.5 137.8 8.4
2002-03-01 08:52:35 51°14.527 2°54.821 133.8 3.3 139.1 8.4
2002-03-01 08:52:39 51°14.525 2°54.825 134.3 3.3 139.2 8.4
2002-03-01 08:52:45 51°14.521 2°54.83 134.5 3.2 139.7 8.4
2002-03-01 08:52:49 51°14.518 2°54.833 134.3 3.1 139.1 8.5
2002-03-01 08:52:55 51°14.514 2°54.838 134.3 3 139.5 8.5
2002-03-01 08:52:59 51°14.512 2°54.842 134.3 2.9 139 8.5
2002-03-01 08:53:05 51°14.508 2°54.846 134.2 2.9 140 8.5
2002-03-01 08:53:09 51°14.506 2°54.849 134.2 2.8 139.5 8.5
2002-03-01 08:53:15 51°14.503 2°54.854 133.8 2.8 140.1 8.5
2002-03-01 08:53:19 51°14.5 2°54.857 134 2.7 140.7 8.5
2002-03-01 08:53:25 51°14.497 2°54.861 133.7 2.7 140.6 8.5
2002-03-01 08:53:29 51°14.495 2°54.864 133.5 2.6 141 8.5
2002-03-01 08:53:35 51°14.491 2°54.868 133.3 2.6 140.9 8.5
2002-03-01 08:53:39 51°14.489 2°54.871 132.8 2.6 140.2 8.5
2002-03-01 08:53:45 51°14.486 2°54.875 133 2.5 141.2 8.5
2002-03-01 08:53:49 51°14.484 2°54.878 132.8 2.5 140.4 8.5
2002-03-01 08:53:55 51°14.481 2°54.881 132.7 2.4 141.7 8.5
2002-03-01 08:53:59 51°14.479 2°54.884 132.8 2.4 140.5 8.5
2002-03-01 08:54:05 51°14.476 2°54.888 132.3 2.4 139.7 8.5
2002-03-01 08:54:09 51°14.473 2°54.89 132.7 2.3 141.6 8.5
2002-03-01 08:54:15 51°14.471 2°54.894 132.3 2.3 142 8.5
2002-03-01 08:54:19 51°14.469 2°54.896 131.7 2.3 142.3 8.3
2002-03-01 08:54:25 51°14.466 2°54.9 132 2.2 140.4 8.5
2002-03-01 08:54:29 51°14.464 2°54.902 131.2 2.2 140 8.5
2002-03-01 08:54:35 51°14.461 2°54.906 130.8 2.1 139.7 8.5
2002-03-01 08:54:40 51°14.459 2°54.908 130.2 2 138.8 8.5
2002-03-01 08:54:45 51°14.458 2°54.91 128.7 1.7 140.6 8.5
2002-03-01 08:54:50 51°14.457 2°54.911 127 1.3 145.7 8.6
2002-03-01 08:54:55 51°14.456 2°54.911 125 1.1 148.5 8.6
2002-03-01 08:55:00 51°14.456 2°54.909 123.8 0.4 202.4 8.6
2002-03-01 08:55:05 51°14.456 2°54.907 123 0.8 276.2 8.6
2002-03-01 08:55:10 51°14.457 2°54.903 121 1.3 283.7 8.6
2002-03-01 08:55:15 51°14.457 2°54.9 118.5 1.6 284 -999
2002-03-01 08:55:20 51°14.457 2°54.897 116.2 1.6 281.1 -999
2002-03-01 08:55:25 51°14.457 2°54.895 113.5 1.2 277.8 -999
2002-03-01 08:55:31 51°14.457 2°54.896 108.8 0.5 255.9 -999
2002-03-01 08:55:36 51°14.456 2°54.9 102.7 0.8 112.7 -999
2002-03-01 08:55:39 51°14.456 2°54.903 97 1.6 100.9 8.6
2002-03-01 08:55:45 51°14.457 2°54.911 90.2 2.4 91.5 8.6
2002-03-01 08:55:49 51°14.458 2°54.918 82.8 3.5 80.9 8.6
2002-03-01 08:55:55 51°14.461 2°54.93 73.8 4.2 74 8.5
2002-03-01 08:55:59 51°14.465 2°54.937 65.3 4.9 61.1 8.4
2002-03-01 08:56:05 51°14.471 2°54.948 58.2 5.4 51.9 8.5
2002-03-01 08:56:09 51°14.476 2°54.954 50.3 5.7 44.1 8.2
2002-03-01 08:56:15 51°14.484 2°54.963 43.7 5.9 37.6 8.1
2002-03-01 08:56:19 51°14.49 2°54.967 37.3 5.8 30.4 8.4
2002-03-01 08:56:25 51°14.498 2°54.973 33.7 5.5 24.4 8.4
2002-03-01 08:56:29 51°14.504 2°54.975 30.3 5.4 20.4 8.4
2002-03-01 08:56:35 51°14.513 2°54.979 26 5.5 18.2 8.4
2002-03-01 08:56:39 51°14.521 2°54.98 19.5 6.2 10.5 8.3
2002-03-01 08:56:45 51°14.533 2°54.98 12.3 6.8 5.5 8.2
2002-03-01 08:56:49 51°14.542 2°54.978 5 7.6 356.7 7.9
2002-03-01 08:56:55 51°14.556 2°54.973 359.3 8.4 349.8 8
2002-03-01 08:56:59 51°14.566 2°54.969 356.5 8.9 346.8 8
2002-03-01 08:57:05 51°14.581 2°54.962 355 9.2 345.1 8.1
2002-03-01 08:57:09 51°14.592 2°54.957 353.8 9.6 343.4 8.1
2002-03-01 08:57:15 51°14.607 2°54.949 352.7 9.7 342.2 8.1
2002-03-01 08:57:20 51°14.619 2°54.942 352 9.7 341.5 8.1
2002-03-01 08:57:25 51°14.632 2°54.935 350.7 9.7 340.6 8.1
2002-03-01 08:57:29 51°14.642 2°54.928 349.8 9.7 339.6 8.2
2002-03-01 08:57:35 51°14.657 2°54.919 349 9.8 338.5 8
2002-03-01 08:57:39 51°14.667 2°54.912 348.2 9.8 337.8 8.1
2002-03-01 08:57:45 51°14.682 2°54.902 347.3 9.8 337.2 8
2002-03-01 08:57:49 51°14.693 2°54.894 346.5 9.9 336.3 8
2002-03-01 08:57:55 51°14.708 2°54.883 345.5 9.9 335.7 8
2002-03-01 08:57:59 51°14.717 2°54.876 345 9.9 334.9 8
2002-03-01 08:58:05 51°14.732 2°54.864 344 9.9 334.2 7.9
2002-03-01 08:58:09 51°14.742 2°54.856 343 9.9 332.9 7.8
2002-03-01 08:58:15 51°14.757 2°54.843 342.2 10 332.2 7.8
2002-03-01 08:58:19 51°14.766 2°54.834 341 10 331 7.8
2002-03-01 08:58:25 51°14.78 2°54.821 340 10 330.3 7.7
2002-03-01 08:58:29 51°14.79 2°54.812 339 10 329.2 7.8
2002-03-01 08:58:34 51°14.802 2°54.8 338.2 10 328.7 7.8
2002-03-01 08:58:39 51°14.813 2°54.788 337.3 10 327.6 7.8
2002-03-01 08:58:45 51°14.827 2°54.774 336.7 9.9 327 7.9
2002-03-01 08:58:49 51°14.835 2°54.764 336 9.6 326 7.9
2002-03-01 08:58:55 51°14.847 2°54.75 335 9.1 324.9 7.9
2002-03-01 08:58:59 51°14.855 2°54.741 334.3 8.9 324.3 7.9
2002-03-01 08:59:05 51°14.866 2°54.728 333.2 8.6 323.4 8
2002-03-01 08:59:09 51°14.873 2°54.719 332.2 8.2 322.1 8
2002-03-01 08:59:15 51°14.883 2°54.706 330.8 8 321 8
2002-03-01 08:59:19 51°14.889 2°54.697 329.8 7.8 319.3 8.3
2002-03-01 08:59:25 51°14.898 2°54.683 328.7 7.5 317.8 8.1
2002-03-01 08:59:29 51°14.904 2°54.675 327.3 7.4 316.6 7.9
2002-03-01 08:59:35 51°14.912 2°54.661 326 7.2 314.9 7.9
2002-03-01 08:59:39 51°14.917 2°54.652 324.8 7.1 313.9 8
2002-03-01 08:59:45 51°14.925 2°54.639 323.5 6.9 312.5 7.8
2002-03-01 08:59:49 51°14.929 2°54.63 322.7 6.8 311.6 7.8
2002-03-01 08:59:55 51°14.937 2°54.616 322 6.7 310.9 7.8
2002-03-01 08:59:59 51°14.941 2°54.607 321 6.6 309.7 7.8
2002-03-01 09:00:05 51°14.948 2°54.594 320.2 6.5 308.5 8.4
2002-03-01 09:00:09 51°14.952 2°54.585 319.3 6.5 307.8 7.7
2002-03-01 09:00:15 51°14.958 2°54.571 318.3 6.4 306.4 7.8
2002-03-01 09:00:19 51°14.963 2°54.562 317.7 6.3 305.7 7.4
2002-03-01 09:00:25 51°14.968 2°54.548 316.8 6.3 304.5 7.6
2002-03-01 09:00:29 51°14.972 2°54.539 316.2 6.3 304 7.4
2002-03-01 09:00:35 51°14.978 2°54.525 315.3 6.2 303 7.5
2002-03-01 09:00:40 51°14.982 2°54.513 314.8 6.2 302.1 7.7
2002-03-01 09:00:45 51°14.987 2°54.501 314 6.2 301.2 7.4
2002-03-01 09:00:50 51°14.991 2°54.49 313 6.2 300.8 7.4
2002-03-01 09:00:55 51°14.995 2°54.478 312.3 6.1 299.8 7.4
2002-03-01 09:01:00 51°14.999 2°54.466 311.8 6.1 299 7.3
2002-03-01 09:01:05 51°15.003 2°54.454 311 6.1 298.5 7.2
2002-03-01 09:01:10 51°15.007 2°54.442 310.2 6.1 297.3 7.3
2002-03-01 09:01:15 51°15.01 2°54.43 309.2 6.1 296.3 7.5
2002-03-01 09:01:20 51°15.013 2°54.418 306.3 6 294.5 7.4
2002-03-01 09:01:25 51°15.015 2°54.406 301.5 5.9 289.1 7.3
2002-03-01 09:01:30 51°15.017 2°54.393 296.7 5.8 285.4 7.3
2002-03-01 09:01:35 51°15.018 2°54.381 291.2 5.6 278.8 7.4
2002-03-01 09:01:40 51°15.018 2°54.37 287 5.4 275 7.4
2002-03-01 09:01:45 51°15.018 2°54.359 282.7 5.2 270.1 7.4
2002-03-01 09:01:50 51°15.017 2°54.348 278.7 5 267.6 7.4
2002-03-01 09:01:55 51°15.016 2°54.338 275.3 4.8 264.2 7.4
2002-03-01 09:02:00 51°15.015 2°54.328 272 4.7 260.2 7.4
2002-03-01 09:02:05 51°15.013 2°54.318 268.5 4.5 257 7.4
2002-03-01 09:02:10 51°15.011 2°54.309 264.8 4.4 253.8 7.4
2002-03-01 09:02:15 51°15.009 2°54.301 261.7 4.2 250.8 7.5
2002-03-01 09:02:20 51°15.007 2°54.293 258.3 4.1 247.9 7.5
2002-03-01 09:02:25 51°15.004 2°54.285 255.3 4 245.7 7.5
2002-03-01 09:02:30 51°15.002 2°54.278 251.5 3.9 242.5 7.5
2002-03-01 09:02:35 51°14.999 2°54.271 248.8 3.8 238.9 7.5
2002-03-01 09:02:40 51°14.996 2°54.264 245.7 3.7 237.2 7.5
2002-03-01 09:02:45 51°14.993 2°54.257 242 3.7 234.8 7.5
2002-03-01 09:02:50 51°14.99 2°54.251 239.5 3.6 232.4 7.5
2002-03-01 09:02:55 51°14.986 2°54.246 236.2 3.6 229.9 7.5
2002-03-01 09:03:00 51°14.983 2°54.24 233.3 3.5 227.5 7.5
2002-03-01 09:03:05 51°14.979 2°54.235 230.2 3.4 225 7.5
2002-03-01 09:03:10 51°14.976 2°54.23 227.7 3.3 223 7.6
2002-03-01 09:03:14 51°14.973 2°54.227 224.3 3.3 220.1 7.5
2002-03-01 09:03:20 51°14.969 2°54.222 221.5 3.2 218.7 7.5
2002-03-01 09:03:24 51°14.966 2°54.219 218.3 3.2 216.9 7.6
2002-03-01 09:03:30 51°14.962 2°54.214 215.3 3.1 214.7 7.6
2002-03-01 09:03:33 51°14.959 2°54.212 212 3.1 211.4 7.6
2002-03-01 09:03:40 51°14.954 2°54.207 208.8 3.1 210.5 7.6
2002-03-01 09:03:44 51°14.951 2°54.205 206.5 3 207.1 7.6
2002-03-01 09:03:49 51°14.947 2°54.202 203.2 2.9 206.4 7.6
2002-03-01 09:03:55 51°14.943 2°54.2 200.5 2.9 203.2 7.6
2002-03-01 09:03:59 51°14.94 2°54.198 197.2 2.8 201.4 7.6
2002-03-01 09:04:04 51°14.936 2°54.197 193.8 2.8 198 7.5
2002-03-01 09:04:09 51°14.932 2°54.195 191 2.8 197.3 7.9
2002-03-01 09:04:15 51°14.928 2°54.193 188 2.7 195.2 7.8
2002-03-01 09:04:20 51°14.924 2°54.192 184.8 2.7 193.3 7.7
2002-03-01 09:04:25 51°14.921 2°54.191 182.2 2.7 192.1 7.9
2002-03-01 09:04:30 51°14.917 2°54.19 179 2.6 189.2 8
2002-03-01 09:04:34 51°14.915 2°54.19 176.2 2.6 188.3 8
2002-03-01 09:04:40 51°14.911 2°54.189 173.3 2.5 185.2 7.9
2002-03-01 09:04:45 51°14.907 2°54.189 170.2 2.4 183.1 7.9
2002-03-01 09:04:50 51°14.904 2°54.189 167.5 2.4 181 8
2002-03-01 09:04:54 51°14.901 2°54.189 164.3 2.4 178.1 8
2002-03-01 09:04:59 51°14.898 2°54.19 161.5 2.3 176.5 8.1
2002-03-01 09:05:05 51°14.895 2°54.19 158.7 2.3 175.1 8.1
2002-03-01 09:05:10 51°14.892 2°54.191 155.8 2.3 172.9 8.1
2002-03-01 09:05:14 51°14.889 2°54.192 152.8 2.2 171.6 8.2
2002-03-01 09:05:20 51°14.886 2°54.193 149.7 2.2 167.6 8.1
2002-03-01 09:05:25 51°14.883 2°54.195 147 2.1 166.3 8.1
2002-03-01 09:05:30 51°14.88 2°54.196 144.2 2 162.9 8.1
2002-03-01 09:05:35 51°14.877 2°54.197 141.2 2 162.5 8.2
2002-03-01 09:05:39 51°14.875 2°54.199 138.3 2 159.5 8.2
2002-03-01 09:05:45 51°14.872 2°54.201 135.7 2 159 8.2
2002-03-01 09:05:50 51°14.87 2°54.202 134.7 2 155.3 8.2
2002-03-01 09:05:55 51°14.867 2°54.205 133 2 156 8.2
2002-03-01 09:06:00 51°14.865 2°54.206 132.7 2 152.9 8.2
2002-03-01 09:06:05 51°14.862 2°54.209 132.3 2 152.2 8.2
2002-03-01 09:06:10 51°14.859 2°54.211 132 2.1 152.1 8.2
2002-03-01 09:06:15 51°14.857 2°54.213 132.3 2.1 150.3 8.2
2002-03-01 09:06:20 51°14.854 2°54.215 132.7 2.1 151.3 8.2
2002-03-01 09:06:25 51°14.852 2°54.218 132.8 2.1 150.2 8.3
2002-03-01 09:06:30 51°14.849 2°54.22 132.7 2.1 150.2 8.3
2002-03-01 09:06:35 51°14.847 2°54.222 133.2 2.2 150 8.4
2002-03-01 09:06:40 51°14.844 2°54.225 133 2.2 149.9 8.5
2002-03-01 09:06:45 51°14.841 2°54.227 133.2 2.2 149.5 8.6
2002-03-01 09:06:50 51°14.838 2°54.23 133 2.2 149.7 8.6
2002-03-01 09:06:55 51°14.836 2°54.232 132.8 2.3 150 8.6
2002-03-01 09:07:00 51°14.833 2°54.235 132.7 2.2 149.5 8.7
2002-03-01 09:07:05 51°14.83 2°54.237 132.5 2.3 148.6 8.6
2002-03-01 09:07:10 51°14.828 2°54.24 132.3 2.3 148.8 8.6
2002-03-01 09:07:15 51°14.825 2°54.243 132.3 2.3 148.1 8.7
2002-03-01 09:07:20 51°14.822 2°54.245 131.8 2.3 147.5 8.8
2002-03-01 09:07:25 51°14.819 2°54.248 132.2 2.3 147.7 9
2002-03-01 09:07:30 51°14.817 2°54.251 131.8 2.4 146.7 8.9
2002-03-01 09:07:35 51°14.814 2°54.254 131.3 2.4 147.6 8.8
2002-03-01 09:07:40 51°14.811 2°54.256 132 2.3 146.9 8.9
2002-03-01 09:07:45 51°14.808 2°54.26 131.2 2.3 145 9.1
2002-03-01 09:07:50 51°14.806 2°54.262 131 2.3 145.2 9
2002-03-01 09:07:55 51°14.803 2°54.265 131.3 2.4 145.5 8.8
2002-03-01 09:07:59 51°14.801 2°54.268 130.7 2.4 145.3 9
2002-03-01 09:08:05 51°14.797 2°54.271 130.7 2.4 146 9
2002-03-01 09:08:10 51°14.795 2°54.275 130.5 2.4 144.6 9
2002-03-01 09:08:15 51°14.792 2°54.278 130.3 2.5 145.6 8.9
2002-03-01 09:08:20 51°14.789 2°54.281 130.2 2.4 144.5 8.8
2002-03-01 09:08:25 51°14.786 2°54.284 130.3 2.5 145.4 8.8
2002-03-01 09:08:30 51°14.783 2°54.287 130.3 2.5 143.4 8.8
2002-03-01 09:08:35 51°14.78 2°54.29 129.8 2.5 144.3 8.8
2002-03-01 09:08:40 51°14.778 2°54.294 130.3 2.4 143.4 8.8
2002-03-01 09:08:45 51°14.775 2°54.297 129.8 2.4 143.9 8.8
2002-03-01 09:08:50 51°14.772 2°54.3 129.7 2.4 142.1 8.9
2002-03-01 09:08:55 51°14.769 2°54.303 129.7 2.4 142.9 8.8
2002-03-01 09:09:00 51°14.767 2°54.307 129.8 2.5 142.4 9.2
2002-03-01 09:09:05 51°14.764 2°54.31 129.5 2.5 144.3 8.9
2002-03-01 09:09:10 51°14.761 2°54.313 129.7 2.5 143.6 9.1
2002-03-01 09:09:15 51°14.758 2°54.316 129.2 2.5 142.8 9
2002-03-01 09:09:20 51°14.755 2°54.32 129.3 2.5 143.2 9.1
2002-03-01 09:09:25 51°14.752 2°54.323 129 2.5 142 9
2002-03-01 09:09:30 51°14.75 2°54.327 128.7 2.5 141.7 9.1
2002-03-01 09:09:35 51°14.747 2°54.33 128.8 2.5 141 9
2002-03-01 09:09:40 51°14.744 2°54.333 128.7 2.5 141.2 9
2002-03-01 09:09:45 51°14.741 2°54.336 128.3 2.5 140.4 9
2002-03-01 09:09:50 51°14.738 2°54.34 128.7 2.5 142.3 9
2002-03-01 09:09:55 51°14.736 2°54.344 128.2 2.5 141.2 9.1
2002-03-01 09:10:00 51°14.733 2°54.347 128.3 2.5 142.2 9.1
2002-03-01 09:10:05 51°14.73 2°54.35 128 2.5 140.5 9.1
2002-03-01 09:10:10 51°14.727 2°54.354 128.3 2.5 142.5 9.1
2002-03-01 09:10:15 51°14.724 2°54.357 128.2 2.5 140.5 9.1
2002-03-01 09:10:20 51°14.722 2°54.361 127.8 2.5 141.6 9.1
2002-03-01 09:10:25 51°14.719 2°54.364 128.3 2.5 139.6 9.1
2002-03-01 09:10:30 51°14.716 2°54.368 127.7 2.5 141.4 9.2
2002-03-01 09:10:35 51°14.713 2°54.371 128 2.5 139 9.2
2002-03-01 09:10:40 51°14.711 2°54.375 127.2 2.5 137.7 9.2
2002-03-01 09:10:45 51°14.708 2°54.379 127 2.4 135.8 9.2
2002-03-01 09:10:50 51°14.706 2°54.383 126.5 2.4 134.3 9.2
2002-03-01 09:10:55 51°14.703 2°54.386 125.5 2.4 135.3 9.2
2002-03-01 09:11:00 51°14.701 2°54.39 125.3 2.4 133 9.1
2002-03-01 09:11:05 51°14.699 2°54.394 124.3 2.4 134.3 9.1
2002-03-01 09:11:10 51°14.697 2°54.398 124.8 2.4 133.3 9.1
2002-03-01 09:11:15 51°14.694 2°54.402 124 2.4 133.5 9.1
2002-03-01 09:11:20 51°14.692 2°54.406 123.7 2.4 132 9.2
2002-03-01 09:11:25 51°14.69 2°54.41 123.7 2.4 131.7 9.2
2002-03-01 09:11:30 51°14.688 2°54.414 123.2 2.4 131.1 9.2
2002-03-01 09:11:35 51°14.685 2°54.417 123.2 2.3 132.3 9.2
2002-03-01 09:11:40 51°14.683 2°54.421 123 2.3 131.4 9.2
2002-03-01 09:11:45 51°14.681 2°54.425 122.8 2.3 132.4 9.2
2002-03-01 09:11:50 51°14.679 2°54.429 122.5 2.3 131.4 9.1
2002-03-01 09:11:55 51°14.677 2°54.433 122.5 2.3 131.5 9.1
2002-03-01 09:11:59 51°14.676 2°54.436 122.3 2.3 130.3 9.1
2002-03-01 09:12:05 51°14.673 2°54.441 122.2 2.3 131.2 9.1
2002-03-01 09:12:10 51°14.671 2°54.445 122.2 2.3 130.8 9.1
2002-03-01 09:12:15 51°14.669 2°54.448 122 2.3 131.1 9.1